createdAt,value
2024-05-09T00:02:15.519Z,5.90
2024-05-09T00:05:02.090Z,5.92
2024-05-09T00:07:48.482Z,5.93
2024-05-09T00:10:37.694Z,5.93
2024-05-09T00:13:25.308Z,5.93
2024-05-09T00:16:11.266Z,5.92
2024-05-09T00:18:57.431Z,5.93
2024-05-09T00:21:43.684Z,5.96
2024-05-09T00:24:29.924Z,6.00
2024-05-09T00:27:16.055Z,6.03
2024-05-09T00:30:03.937Z,6.04
2024-05-09T00:32:50.403Z,6.07
2024-05-09T00:35:37.281Z,6.08
2024-05-09T00:38:23.629Z,6.10
2024-05-09T00:41:09.943Z,6.08
2024-05-09T00:43:56.325Z,6.06
2024-05-09T00:46:43.730Z,6.04
2024-05-09T00:49:32.169Z,6.04
2024-05-09T00:52:18.196Z,6.05
2024-05-09T00:55:05.858Z,6.05
2024-05-09T00:57:52.000Z,6.05
2024-05-09T01:00:40.598Z,6.03
2024-05-09T01:03:27.875Z,6.02
2024-05-09T01:06:14.312Z,5.99
2024-05-09T01:09:00.674Z,5.96
2024-05-09T01:11:47.128Z,5.97
2024-05-09T01:14:36.583Z,5.99
2024-05-09T01:17:23.758Z,6.01
2024-05-09T01:20:12.981Z,6.02
2024-05-09T01:23:06.906Z,6.01
2024-05-09T01:25:53.151Z,6.00
2024-05-09T01:28:39.308Z,5.99
2024-05-09T01:31:25.464Z,5.98
2024-05-09T01:34:11.681Z,5.98
2024-05-09T01:36:58.036Z,5.95
2024-05-09T01:39:44.254Z,5.93
2024-05-09T01:42:30.235Z,5.93
2024-05-09T01:45:17.811Z,5.92
2024-05-09T01:48:05.080Z,5.92
2024-05-09T01:50:51.352Z,5.92
2024-05-09T01:53:38.430Z,5.91
2024-05-09T01:56:24.908Z,5.91
2024-05-09T01:59:11.114Z,5.92
2024-05-09T02:01:58.091Z,5.93
2024-05-09T02:04:48.469Z,5.95
2024-05-09T02:07:35.068Z,5.98
2024-05-09T02:10:26.371Z,6.01
2024-05-09T02:13:18.311Z,6.06
2024-05-09T02:16:10.630Z,6.07
2024-05-09T02:18:57.250Z,6.05
2024-05-09T02:21:43.603Z,6.04
2024-05-09T02:24:29.850Z,6.03
2024-05-09T02:27:16.212Z,6.03
2024-05-09T02:30:02.402Z,6.02
2024-05-09T02:32:50.158Z,5.99
2024-05-09T02:35:39.331Z,5.98
2024-05-09T02:38:25.428Z,5.95
2024-05-09T02:41:11.996Z,5.92
2024-05-09T02:43:58.087Z,5.90
2024-05-09T02:46:44.745Z,5.89
2024-05-09T02:49:31.162Z,5.88
2024-05-09T02:52:18.687Z,5.84
2024-05-09T02:55:05.010Z,5.82
2024-05-09T02:57:50.973Z,5.82
2024-05-09T03:00:40.789Z,5.80
2024-05-09T03:03:29.013Z,5.81
2024-05-09T03:06:15.343Z,5.83
2024-05-09T03:09:04.086Z,5.83
2024-05-09T03:11:51.571Z,5.85
2024-05-09T03:14:37.886Z,5.86
2024-05-09T03:17:24.300Z,5.86
2024-05-09T03:20:17.537Z,5.86
2024-05-09T03:23:10.427Z,5.87
2024-05-09T03:25:57.151Z,5.87
2024-05-09T03:28:43.748Z,5.91
2024-05-09T03:31:30.097Z,5.93
2024-05-09T03:34:16.300Z,5.96
2024-05-09T03:37:02.690Z,5.98
2024-05-09T03:39:48.552Z,6.01
2024-05-09T03:42:40.056Z,6.02
2024-05-09T03:45:26.234Z,6.05
2024-05-09T03:48:12.600Z,6.08
2024-05-09T03:50:59.423Z,6.11
2024-05-09T03:53:45.484Z,6.17
2024-05-09T03:56:31.812Z,6.21
2024-05-09T03:59:18.342Z,6.24
2024-05-09T04:02:05.749Z,6.28
2024-05-09T04:04:51.993Z,6.34
2024-05-09T04:07:38.190Z,6.42
2024-05-09T04:10:32.353Z,6.48
2024-05-09T04:13:19.950Z,6.52
2024-05-09T04:16:09.933Z,6.57
2024-05-09T04:18:56.556Z,6.63
2024-05-09T04:21:43.133Z,6.72
2024-05-09T04:24:29.135Z,6.77
2024-05-09T04:27:14.988Z,6.81
2024-05-09T04:30:01.148Z,6.85
2024-05-09T04:32:47.351Z,6.89
2024-05-09T04:35:33.987Z,6.96
2024-05-09T04:38:20.579Z,7.05
2024-05-09T04:41:07.105Z,7.13
2024-05-09T04:43:53.142Z,7.22
2024-05-09T04:46:39.635Z,7.29
2024-05-09T04:49:26.298Z,7.36
2024-05-09T04:52:12.456Z,7.45
2024-05-09T04:54:59.046Z,7.58
2024-05-09T04:57:45.365Z,7.74
2024-05-09T05:00:36.610Z,7.89
2024-05-09T05:03:25.351Z,8.02
2024-05-09T05:06:11.671Z,8.15
2024-05-09T05:08:57.714Z,8.28
2024-05-09T05:11:44.255Z,8.39
2024-05-09T05:14:30.761Z,8.50
2024-05-09T05:17:17.221Z,8.60
2024-05-09T05:20:04.713Z,8.74
2024-05-09T05:22:50.901Z,8.92
2024-05-09T05:25:37.231Z,9.05
2024-05-09T05:28:23.543Z,9.13
2024-05-09T05:31:09.955Z,9.27
2024-05-09T05:33:56.081Z,9.35
2024-05-09T05:36:42.611Z,9.44
2024-05-09T05:39:28.513Z,9.56
2024-05-09T05:42:14.760Z,9.73
2024-05-09T05:45:01.465Z,9.91
2024-05-09T05:47:47.742Z,10.11
2024-05-09T05:50:37.363Z,10.38
2024-05-09T05:53:25.154Z,10.69
2024-05-09T05:56:11.459Z,10.97
2024-05-09T05:58:57.897Z,11.17
2024-05-09T06:01:44.016Z,11.58
2024-05-09T06:04:30.285Z,12.07
2024-05-09T06:07:16.644Z,12.38
2024-05-09T06:10:05.287Z,12.91
2024-05-09T06:12:53.248Z,13.67
2024-05-09T06:15:40.154Z,14.97
2024-05-09T06:18:26.978Z,16.69
2024-05-09T06:21:16.396Z,17.69
2024-05-09T06:24:05.321Z,17.68
2024-05-09T06:26:52.427Z,17.64
2024-05-09T06:29:40.881Z,17.38
2024-05-09T06:32:27.164Z,17.23
2024-05-09T06:35:13.851Z,17.28
2024-05-09T06:38:00.530Z,18.00
2024-05-09T06:40:46.869Z,18.73
2024-05-09T06:43:34.449Z,19.44
2024-05-09T06:46:21.654Z,19.72
2024-05-09T06:49:10.841Z,20.23
2024-05-09T06:51:58.980Z,20.71
2024-05-09T06:54:45.151Z,21.09
2024-05-09T06:57:31.472Z,21.53
2024-05-09T07:00:26.812Z,21.63
2024-05-09T07:03:18.767Z,21.53
2024-05-09T07:06:06.113Z,21.65
2024-05-09T07:08:52.835Z,21.55
2024-05-09T07:11:39.009Z,21.48
2024-05-09T07:14:25.552Z,21.71
2024-05-09T07:17:12.014Z,21.65
2024-05-09T07:19:59.333Z,21.80
2024-05-09T07:22:45.444Z,21.85
2024-05-09T07:25:31.746Z,21.52
2024-05-09T07:28:20.389Z,21.53
2024-05-09T07:31:06.926Z,21.37
2024-05-09T07:33:53.316Z,21.26
2024-05-09T07:36:39.555Z,21.16
2024-05-09T07:39:25.799Z,21.19
2024-05-09T07:42:11.681Z,21.10
2024-05-09T07:45:11.223Z,20.93
2024-05-09T07:52:38.252Z,20.83
2024-05-09T07:54:01.418Z,20.59
2024-05-09T07:56:48.199Z,20.26
2024-05-09T07:59:37.618Z,19.87
2024-05-09T08:02:24.212Z,19.56
2024-05-09T08:05:10.862Z,19.41
2024-05-09T08:07:57.121Z,19.39
2024-05-09T08:10:43.441Z,19.93
2024-05-09T08:13:29.757Z,20.77
2024-05-09T08:16:15.992Z,21.77
2024-05-09T08:19:02.680Z,22.64
2024-05-09T08:21:49.631Z,23.30
2024-05-09T08:24:35.837Z,23.69
2024-05-09T08:27:22.346Z,24.18
2024-05-09T08:30:15.432Z,24.17
2024-05-09T08:33:08.243Z,24.02
2024-05-09T08:35:54.814Z,23.97
2024-05-09T08:38:40.877Z,24.19
2024-05-09T08:41:27.393Z,24.43
2024-05-09T08:44:13.648Z,24.14
2024-05-09T08:46:59.909Z,24.04
2024-05-09T08:49:48.079Z,24.67
2024-05-09T08:52:34.466Z,25.67
2024-05-09T08:55:21.351Z,26.47
2024-05-09T08:58:14.448Z,27.28
2024-05-09T09:01:03.298Z,27.50
2024-05-09T09:03:52.860Z,28.04
2024-05-09T09:06:39.185Z,28.65
2024-05-09T09:09:26.637Z,29.06
2024-05-09T09:12:13.050Z,29.30
2024-05-09T09:14:59.497Z,29.51
2024-05-09T09:17:58.537Z,29.47
2024-05-09T09:20:44.843Z,29.20
2024-05-09T09:23:32.615Z,29.39
2024-05-09T09:26:18.910Z,29.55
2024-05-09T09:29:05.071Z,29.69
2024-05-09T09:32:07.379Z,29.84
2024-05-09T09:34:53.668Z,29.94
2024-05-09T09:37:40.552Z,29.91
2024-05-09T09:40:34.792Z,29.92
2024-05-09T09:43:25.478Z,29.84
2024-05-09T09:46:13.212Z,29.87
2024-05-09T09:49:00.438Z,29.76
2024-05-09T09:51:47.688Z,29.24
2024-05-09T09:54:35.062Z,29.23
2024-05-09T09:57:23.217Z,29.40
2024-05-09T10:00:17.271Z,28.86
2024-05-09T10:03:07.139Z,29.01
2024-05-09T10:05:54.389Z,29.35
2024-05-09T10:08:42.021Z,29.94
2024-05-09T10:11:31.781Z,30.05
2024-05-09T10:14:21.665Z,30.38
2024-05-09T10:17:08.177Z,30.43
2024-05-09T10:20:11.885Z,30.41
2024-05-09T10:23:04.798Z,30.49
2024-05-09T10:26:00.355Z,30.22
2024-05-09T10:28:46.676Z,30.19
2024-05-09T10:31:33.251Z,30.13
2024-05-09T10:34:23.357Z,30.35
2024-05-09T10:37:10.010Z,30.55
2024-05-09T10:39:58.206Z,30.69
2024-05-09T10:42:45.129Z,30.79
2024-05-09T10:45:31.238Z,31.08
2024-05-09T10:48:17.583Z,31.41
2024-05-09T10:51:04.603Z,31.75
2024-05-09T10:53:51.779Z,31.91
2024-05-09T10:56:38.303Z,32.03
2024-05-09T10:59:24.943Z,31.87
2024-05-09T11:02:11.730Z,31.88
2024-05-09T11:04:58.327Z,31.78
2024-05-09T11:07:44.749Z,31.80
2024-05-09T11:10:34.066Z,32.02
2024-05-09T11:13:38.167Z,32.07
2024-05-09T11:16:24.460Z,31.73
2024-05-09T11:19:13.074Z,31.07
2024-05-09T11:22:02.407Z,30.36
2024-05-09T11:24:48.769Z,29.72
2024-05-09T11:27:35.354Z,29.03
2024-05-09T11:30:29.644Z,28.74
2024-05-09T11:33:19.041Z,28.52
2024-05-09T11:36:06.634Z,28.08
2024-05-09T11:38:52.871Z,27.82
2024-05-09T11:41:39.403Z,27.33
2024-05-09T11:44:26.394Z,26.61
2024-05-09T11:47:12.583Z,25.84
2024-05-09T11:49:58.959Z,25.23
2024-05-09T11:52:45.470Z,24.83
2024-05-09T11:55:35.617Z,24.55
2024-05-09T11:58:22.884Z,24.21
2024-05-09T12:01:09.284Z,23.87
2024-05-09T12:03:55.821Z,23.54
2024-05-09T12:06:42.353Z,23.08
2024-05-09T12:09:28.901Z,22.54
2024-05-09T12:12:14.866Z,22.03
2024-05-09T12:15:01.394Z,21.77
2024-05-09T12:17:50.763Z,21.55
2024-05-09T12:20:39.551Z,21.34
2024-05-09T12:23:27.126Z,21.20
2024-05-09T12:26:15.069Z,21.10
2024-05-09T12:29:01.101Z,21.04
2024-05-09T12:31:47.484Z,21.00
2024-05-09T12:34:33.621Z,21.03
2024-05-09T12:37:19.967Z,21.07
2024-05-09T12:40:15.791Z,21.04
2024-05-09T12:43:06.760Z,20.95
2024-05-09T12:45:53.056Z,20.85
2024-05-09T12:48:39.943Z,20.76
2024-05-09T12:51:26.237Z,20.64
2024-05-09T12:54:12.170Z,20.51
2024-05-09T12:56:58.982Z,20.29
2024-05-09T12:59:45.208Z,20.05
2024-05-09T13:02:31.534Z,19.80
2024-05-09T13:05:17.929Z,19.55
2024-05-09T13:08:04.731Z,19.42
2024-05-09T13:10:51.129Z,19.35
2024-05-09T13:13:37.180Z,19.30
2024-05-09T13:16:23.687Z,19.20
2024-05-09T13:19:10.059Z,19.36
2024-05-09T13:21:56.130Z,19.48
2024-05-09T13:24:42.466Z,19.59
2024-05-09T13:27:28.639Z,19.57
2024-05-09T13:30:21.431Z,19.42
2024-05-09T13:33:13.746Z,19.28
2024-05-09T13:36:00.456Z,19.29
2024-05-09T13:38:46.569Z,19.10
2024-05-09T13:41:32.783Z,18.85
2024-05-09T13:44:19.150Z,18.78
2024-05-09T13:47:05.157Z,18.83
2024-05-09T13:49:51.344Z,18.97
2024-05-09T13:52:37.815Z,18.96
2024-05-09T13:55:24.203Z,18.81
2024-05-09T13:58:10.926Z,18.90
2024-05-09T14:00:57.601Z,18.95
2024-05-09T14:03:44.072Z,18.90
2024-05-09T14:06:30.583Z,19.02
2024-05-09T14:09:17.074Z,19.09
2024-05-09T14:12:03.750Z,19.10
2024-05-09T14:14:49.756Z,19.20
2024-05-09T14:17:36.171Z,19.30
2024-05-09T14:20:30.695Z,19.40
2024-05-09T14:23:18.685Z,19.54
2024-05-09T14:26:04.751Z,19.50
2024-05-09T14:28:50.964Z,19.49
2024-05-09T14:31:39.355Z,19.68
2024-05-09T14:34:27.195Z,19.80
2024-05-09T14:37:13.730Z,19.69
2024-05-09T14:40:00.077Z,19.64
2024-05-09T14:42:46.489Z,19.60
2024-05-09T14:45:33.699Z,19.60
2024-05-09T14:48:20.224Z,19.53
2024-05-09T14:51:06.806Z,19.40
2024-05-09T14:53:53.118Z,19.16
2024-05-09T14:56:39.643Z,19.04
2024-05-09T14:59:26.025Z,18.96
2024-05-09T15:02:12.213Z,18.86
2024-05-09T15:04:58.527Z,18.86
2024-05-09T15:07:45.213Z,18.90
2024-05-09T15:10:35.370Z,19.08
2024-05-09T15:13:24.092Z,19.12
2024-05-09T15:16:10.505Z,19.08
2024-05-09T15:18:57.242Z,19.05
2024-05-09T15:21:43.467Z,19.06
2024-05-09T15:24:30.061Z,19.10
2024-05-09T15:27:17.433Z,19.08
2024-05-09T15:30:08.503Z,19.06
2024-05-09T15:32:56.962Z,19.04
2024-05-09T15:35:45.578Z,19.00
2024-05-09T15:38:32.142Z,18.88
2024-05-09T15:41:18.207Z,18.77
2024-05-09T15:44:04.703Z,18.68
2024-05-09T15:46:52.076Z,18.65
2024-05-09T15:49:38.470Z,18.56
2024-05-09T15:52:24.843Z,18.40
2024-05-09T15:55:11.328Z,18.28
2024-05-09T15:57:57.427Z,18.20
2024-05-09T16:00:45.493Z,18.13
2024-05-09T16:03:33.362Z,18.01
2024-05-09T16:06:20.533Z,17.91
2024-05-09T16:09:07.444Z,17.80
2024-05-09T16:11:54.198Z,17.77
2024-05-09T16:14:40.539Z,17.68
2024-05-09T16:17:27.069Z,17.60
2024-05-09T16:20:18.314Z,17.53
2024-05-09T16:23:12.157Z,17.44
2024-05-09T16:25:58.589Z,17.36
2024-05-09T16:28:44.674Z,17.25
2024-05-09T16:31:30.972Z,17.13
2024-05-09T16:34:17.207Z,16.99
2024-05-09T16:37:05.757Z,16.81
2024-05-09T16:39:52.160Z,16.64
2024-05-09T16:42:38.473Z,16.48
2024-05-09T16:45:24.290Z,16.37
2024-05-09T16:48:10.874Z,16.29
2024-05-09T16:50:57.181Z,16.23
2024-05-09T16:53:43.474Z,16.18
2024-05-09T16:56:30.047Z,16.14
2024-05-09T16:59:17.701Z,16.09
2024-05-09T17:02:04.451Z,15.99
2024-05-09T17:04:50.896Z,15.92
2024-05-09T17:07:37.906Z,15.87
2024-05-09T17:10:31.299Z,15.83
2024-05-09T17:13:20.312Z,15.79
2024-05-09T17:16:09.678Z,15.74
2024-05-09T17:18:56.297Z,15.66
2024-05-09T17:21:42.830Z,15.59
2024-05-09T17:24:29.122Z,15.52
2024-05-09T17:27:15.342Z,15.45
2024-05-09T17:30:03.467Z,15.37
2024-05-09T17:32:51.282Z,15.24
2024-05-09T17:35:37.632Z,15.10
2024-05-09T17:38:23.819Z,14.98
2024-05-09T17:41:09.824Z,14.86
2024-05-09T17:43:55.687Z,14.74
2024-05-09T17:46:42.368Z,14.66
2024-05-09T17:49:28.645Z,14.57
2024-05-09T17:52:14.857Z,14.48
2024-05-09T17:55:01.102Z,14.37
2024-05-09T17:57:48.027Z,14.23
2024-05-09T18:00:39.418Z,14.10
2024-05-09T18:03:27.956Z,13.99
2024-05-09T18:06:15.727Z,13.87
2024-05-09T18:09:02.118Z,13.76
2024-05-09T18:11:48.523Z,13.64
2024-05-09T18:14:35.507Z,13.50
2024-05-09T18:17:25.637Z,13.38
2024-05-09T18:20:19.653Z,13.24
2024-05-09T18:23:17.681Z,13.12
2024-05-09T18:26:05.326Z,13.01
2024-05-09T18:28:51.662Z,12.90
2024-05-09T18:31:37.855Z,12.82
2024-05-09T18:34:24.320Z,12.71
2024-05-09T18:37:11.067Z,12.62
2024-05-09T18:39:57.431Z,12.52
2024-05-09T18:42:43.859Z,12.42
2024-05-09T18:45:30.137Z,12.32
2024-05-09T18:48:16.380Z,12.22
2024-05-09T18:51:04.416Z,12.13
2024-05-09T18:53:51.799Z,12.04
2024-05-09T18:56:40.125Z,11.95
2024-05-09T18:59:26.575Z,11.85
2024-05-09T19:02:13.508Z,11.77
2024-05-09T19:05:00.277Z,11.67
2024-05-09T19:07:47.496Z,11.58
2024-05-09T19:10:35.380Z,11.50
2024-05-09T19:13:24.173Z,11.41
2024-05-09T19:16:10.271Z,11.32
2024-05-09T19:18:56.820Z,11.24
2024-05-09T19:21:43.595Z,11.17
2024-05-09T19:24:30.175Z,11.11
2024-05-09T19:27:16.526Z,11.05
2024-05-09T19:30:04.285Z,10.99
2024-05-09T19:32:54.141Z,10.93
2024-05-09T19:35:42.546Z,10.87
2024-05-09T19:38:29.168Z,10.81
2024-05-09T19:41:15.686Z,10.76
2024-05-09T19:44:01.979Z,10.69
2024-05-09T19:46:48.246Z,10.63
2024-05-09T19:49:34.506Z,10.57
2024-05-09T19:52:20.573Z,10.50
2024-05-09T19:55:06.757Z,10.44
2024-05-09T19:57:53.110Z,10.40
2024-05-09T20:00:41.775Z,10.35
2024-05-09T20:03:31.635Z,10.31
2024-05-09T20:06:18.884Z,10.28
2024-05-09T20:09:05.150Z,10.23
2024-05-09T20:11:51.277Z,10.19
2024-05-09T20:14:37.754Z,10.15
2024-05-09T20:17:24.123Z,10.11
2024-05-09T20:20:20.282Z,10.08
2024-05-09T20:23:14.512Z,10.07
2024-05-09T20:26:00.991Z,10.04
2024-05-09T20:28:47.161Z,10.02
2024-05-09T20:31:33.722Z,10.01
2024-05-09T20:34:20.049Z,10.00
2024-05-09T20:37:06.495Z,9.98
2024-05-09T20:39:52.574Z,9.96
2024-05-09T20:42:38.884Z,9.94
2024-05-09T20:45:25.382Z,9.92
2024-05-09T20:48:12.271Z,9.92
2024-05-09T20:50:58.563Z,9.91
2024-05-09T20:53:44.599Z,9.91
2024-05-09T20:56:31.058Z,9.90
2024-05-09T20:59:17.783Z,9.89
2024-05-09T21:02:04.658Z,9.87
2024-05-09T21:04:51.604Z,9.87
2024-05-09T21:07:37.705Z,9.86
2024-05-09T21:10:26.919Z,9.87
2024-05-09T21:13:13.790Z,9.87
2024-05-09T21:16:00.194Z,9.87
2024-05-09T21:18:46.681Z,9.87
2024-05-09T21:21:41.620Z,9.87
2024-05-09T21:24:27.912Z,9.86
2024-05-09T21:27:14.159Z,9.86
2024-05-09T21:30:00.578Z,9.86
2024-05-09T21:32:46.902Z,9.87
2024-05-09T21:35:33.485Z,9.87
2024-05-09T21:38:19.543Z,9.87
2024-05-09T21:41:07.030Z,9.87
2024-05-09T21:43:53.623Z,9.89
2024-05-09T21:46:39.657Z,9.91
2024-05-09T21:49:26.304Z,9.93
2024-05-09T21:52:12.954Z,9.95
2024-05-09T21:54:58.975Z,9.97
2024-05-09T21:57:45.330Z,10.02
2024-05-09T22:00:36.853Z,10.05
2024-05-09T22:03:25.191Z,10.11
2024-05-09T22:06:12.147Z,10.15
2024-05-09T22:08:58.622Z,10.19
2024-05-09T22:11:45.788Z,10.25
2024-05-09T22:14:32.237Z,10.29
2024-05-09T22:17:18.771Z,10.32
2024-05-09T22:20:11.991Z,10.36
2024-05-09T22:23:05.145Z,10.40
2024-05-09T22:25:51.311Z,10.43
2024-05-09T22:28:37.849Z,10.45
2024-05-09T22:31:24.214Z,10.49
2024-05-09T22:34:11.908Z,10.51
2024-05-09T22:36:58.260Z,10.53
2024-05-09T22:39:44.796Z,10.55
2024-05-09T22:42:30.897Z,10.57
2024-05-09T22:45:17.148Z,10.59
2024-05-09T22:48:04.807Z,10.60
2024-05-09T22:50:51.273Z,10.64
2024-05-09T22:53:37.810Z,10.68
2024-05-09T22:56:28.462Z,10.72
2024-05-09T22:59:14.490Z,10.77
2024-05-09T23:02:01.115Z,10.81
2024-05-09T23:04:47.463Z,10.85
2024-05-09T23:07:33.787Z,10.89
2024-05-09T23:10:27.472Z,10.93
2024-05-09T23:13:18.666Z,10.94
2024-05-09T23:16:05.701Z,10.96
2024-05-09T23:18:51.813Z,10.99
2024-05-09T23:21:40.020Z,11.01
2024-05-09T23:24:26.119Z,11.01
2024-05-09T23:27:12.151Z,11.00
2024-05-09T23:29:58.517Z,11.01
2024-05-09T23:32:44.757Z,11.00
2024-05-09T23:35:31.058Z,11.01
2024-05-09T23:38:18.369Z,11.01
2024-05-09T23:41:06.359Z,11.02
2024-05-09T23:43:52.641Z,11.03
2024-05-09T23:46:38.666Z,11.03
2024-05-09T23:49:24.802Z,11.04
2024-05-09T23:52:11.427Z,11.04
2024-05-09T23:54:58.040Z,11.04
2024-05-09T23:57:44.412Z,11.03
